sensor_id;sensor_type;location;lat;lon;timestamp;pressure;altitude;pressure_sealevel;temperature;humidity
71666;BME280;59503;53.486;10.196;2024-01-11T00:00:14;103510.84;;;-3.16;100.00
71666;BME280;59503;53.486;10.196;2024-01-11T00:02:40;103487.91;;;-3.17;100.00
71666;BME280;59503;53.486;10.196;2024-01-11T00:05:06;103492.84;;;-3.14;100.00
71666;BME280;59503;53.486;10.196;2024-01-11T00:07:32;103485.25;;;-3.17;100.00
71666;BME280;59503;53.486;10.196;2024-01-11T00:09:57;103489.34;;;-3.15;100.00
71666;BME280;59503;53.486;10.196;2024-01-11T00:12:23;103469.69;;;-3.20;100.00
71666;BME280;59503;53.486;10.196;2024-01-11T00:14:48;103481.16;;;-3.13;100.00
71666;BME280;59503;53.486;10.196;2024-01-11T00:17:13;103457.84;;;-3.11;100.00
71666;BME280;59503;53.486;10.196;2024-01-11T00:19:41;103461.50;;;-3.06;100.00
71666;BME280;59503;53.486;10.196;2024-01-11T00:22:06;103447.22;;;-3.05;100.00
71666;BME280;59503;53.486;10.196;2024-01-11T00:24:31;103425.31;;;-3.13;100.00
71666;BME280;59503;53.486;10.196;2024-01-11T00:26:57;103424.69;;;-3.15;100.00
71666;BME280;59503;53.486;10.196;2024-01-11T00:29:22;103410.19;;;-3.13;100.00
71666;BME280;59503;53.486;10.196;2024-01-11T00:31:48;103426.13;;;-3.06;100.00
71666;BME280;59503;53.486;10.196;2024-01-11T00:34:13;103430.84;;;-3.08;100.00
71666;BME280;59503;53.486;10.196;2024-01-11T00:36:38;103429.00;;;-3.01;100.00
71666;BME280;59503;53.486;10.196;2024-01-11T00:39:04;103420.19;;;-3.02;100.00
71666;BME280;59503;53.486;10.196;2024-01-11T00:41:29;103409.53;;;-3.02;100.00
71666;BME280;59503;53.486;10.196;2024-01-11T00:43:55;103429.63;;;-2.99;100.00
71666;BME280;59503;53.486;10.196;2024-01-11T00:46:20;103425.09;;;-3.05;100.00
71666;BME280;59503;53.486;10.196;2024-01-11T00:48:45;103408.09;;;-3.11;100.00
71666;BME280;59503;53.486;10.196;2024-01-11T00:51:11;103414.03;;;-3.02;100.00
71666;BME280;59503;53.486;10.196;2024-01-11T00:53:36;103423.06;;;-3.03;100.00
71666;BME280;59503;53.486;10.196;2024-01-11T00:56:02;103410.78;;;-3.11;100.00
71666;BME280;59503;53.486;10.196;2024-01-11T00:58:27;103421.63;;;-3.06;100.00
71666;BME280;59503;53.486;10.196;2024-01-11T01:00:53;103398.50;;;-3.12;100.00
71666;BME280;59503;53.486;10.196;2024-01-11T01:03:20;103391.97;;;-3.09;100.00
71666;BME280;59503;53.486;10.196;2024-01-11T01:05:45;103392.34;;;-3.06;100.00
71666;BME280;59503;53.486;10.196;2024-01-11T01:08:11;103388.69;;;-3.05;100.00
71666;BME280;59503;53.486;10.196;2024-01-11T01:10:37;103384.16;;;-2.91;100.00
71666;BME280;59503;53.486;10.196;2024-01-11T01:13:02;103382.34;;;-2.91;100.00
71666;BME280;59503;53.486;10.196;2024-01-11T01:15:28;103369.00;;;-2.84;100.00
71666;BME280;59503;53.486;10.196;2024-01-11T01:17:53;103365.75;;;-2.93;100.00
71666;BME280;59503;53.486;10.196;2024-01-11T01:20:19;103366.13;;;-2.83;100.00
71666;BME280;59503;53.486;10.196;2024-01-11T01:22:44;103379.25;;;-2.88;100.00
71666;BME280;59503;53.486;10.196;2024-01-11T01:25:09;103372.88;;;-2.87;100.00
71666;BME280;59503;53.486;10.196;2024-01-11T01:27:35;103368.19;;;-2.91;100.00
71666;BME280;59503;53.486;10.196;2024-01-11T01:30:00;103362.25;;;-2.93;100.00
71666;BME280;59503;53.486;10.196;2024-01-11T01:32:26;103359.22;;;-3.03;100.00
71666;BME280;59503;53.486;10.196;2024-01-11T01:34:51;103365.75;;;-2.99;100.00
71666;BME280;59503;53.486;10.196;2024-01-11T01:37:16;103384.78;;;-2.96;100.00
71666;BME280;59503;53.486;10.196;2024-01-11T01:39:42;103389.31;;;-3.03;100.00
71666;BME280;59503;53.486;10.196;2024-01-11T01:42:07;103405.47;;;-3.04;100.00
71666;BME280;59503;53.486;10.196;2024-01-11T01:44:33;103390.53;;;-3.05;100.00
71666;BME280;59503;53.486;10.196;2024-01-11T01:46:59;103398.50;;;-3.05;100.00
71666;BME280;59503;53.486;10.196;2024-01-11T01:49:25;103372.72;;;-2.98;100.00
71666;BME280;59503;53.486;10.196;2024-01-11T01:51:52;103366.38;;;-3.10;100.00
71666;BME280;59503;53.486;10.196;2024-01-11T01:54:19;103357.16;;;-3.01;100.00
71666;BME280;59503;53.486;10.196;2024-01-11T01:56:45;103362.69;;;-3.03;100.00
71666;BME280;59503;53.486;10.196;2024-01-11T01:59:11;103372.50;;;-3.03;100.00
71666;BME280;59503;53.486;10.196;2024-01-11T02:01:38;103360.84;;;-3.09;100.00
71666;BME280;59503;53.486;10.196;2024-01-11T02:04:03;103384.78;;;-3.02;100.00
71666;BME280;59503;53.486;10.196;2024-01-11T02:06:32;103393.78;;;-3.03;100.00
71666;BME280;59503;53.486;10.196;2024-01-11T02:08:58;103398.31;;;-3.10;100.00
71666;BME280;59503;53.486;10.196;2024-01-11T02:11:24;103421.81;;;-3.07;100.00
71666;BME280;59503;53.486;10.196;2024-01-11T02:13:52;103427.13;;;-3.01;100.00
71666;BME280;59503;53.486;10.196;2024-01-11T02:16:18;103426.13;;;-3.00;100.00
71666;BME280;59503;53.486;10.196;2024-01-11T02:18:44;103411.19;;;-3.07;100.00
71666;BME280;59503;53.486;10.196;2024-01-11T02:21:11;103412.84;;;-3.06;100.00
71666;BME280;59503;53.486;10.196;2024-01-11T02:23:43;103420.19;;;-3.08;100.00
71666;BME280;59503;53.486;10.196;2024-01-11T02:26:12;103409.16;;;-3.12;100.00
71666;BME280;59503;53.486;10.196;2024-01-11T02:28:37;103413.63;;;-3.12;100.00
71666;BME280;59503;53.486;10.196;2024-01-11T02:31:03;103429.22;;;-3.09;100.00
71666;BME280;59503;53.486;10.196;2024-01-11T02:33:28;103425.31;;;-3.07;100.00
71666;BME280;59503;53.486;10.196;2024-01-11T02:35:54;103408.94;;;-3.10;100.00
71666;BME280;59503;53.486;10.196;2024-01-11T02:38:19;103412.63;;;-3.11;100.00
71666;BME280;59503;53.486;10.196;2024-01-11T02:40:45;103421.03;;;-3.14;100.00
71666;BME280;59503;53.486;10.196;2024-01-11T02:43:12;103430.84;;;-3.08;100.00
71666;BME280;59503;53.486;10.196;2024-01-11T02:45:37;103434.72;;;-3.04;100.00
71666;BME280;59503;53.486;10.196;2024-01-11T02:48:03;103432.47;;;-3.07;100.00
71666;BME280;59503;53.486;10.196;2024-01-11T02:50:28;103410.19;;;-3.13;100.00
71666;BME280;59503;53.486;10.196;2024-01-11T02:52:54;103412.84;;;-3.06;100.00
71666;BME280;59503;53.486;10.196;2024-01-11T02:55:19;103394.44;;;-3.14;100.00
71666;BME280;59503;53.486;10.196;2024-01-11T02:57:45;103403.81;;;-3.05;100.00
71666;BME280;59503;53.486;10.196;2024-01-11T03:00:11;103396.88;;;-3.13;100.00
71666;BME280;59503;53.486;10.196;2024-01-11T03:02:37;103415.09;;;-3.10;100.00
71666;BME280;59503;53.486;10.196;2024-01-11T03:05:04;103412.00;;;-3.07;100.00
71666;BME280;59503;53.486;10.196;2024-01-11T03:07:29;103411.59;;;-3.04;100.00
71666;BME280;59503;53.486;10.196;2024-01-11T03:09:56;103391.34;;;-3.05;100.00
71666;BME280;59503;53.486;10.196;2024-01-11T03:12:21;103406.25;;;-2.97;100.00
71666;BME280;59503;53.486;10.196;2024-01-11T03:14:47;103394.41;;;-3.01;100.00
71666;BME280;59503;53.486;10.196;2024-01-11T03:17:13;103400.75;;;-3.02;100.00
71666;BME280;59503;53.486;10.196;2024-01-11T03:19:41;103406.69;;;-3.00;100.00
71666;BME280;59503;53.486;10.196;2024-01-11T03:22:06;103399.28;;;-2.85;100.00
71666;BME280;59503;53.486;10.196;2024-01-11T03:24:32;103405.00;;;-2.82;100.00
71666;BME280;59503;53.486;10.196;2024-01-11T03:26:58;103405.81;;;-2.68;100.00
71666;BME280;59503;53.486;10.196;2024-01-11T03:29:23;103393.53;;;-2.69;100.00
71666;BME280;59503;53.486;10.196;2024-01-11T03:31:49;103400.88;;;-2.58;100.00
71666;BME280;59503;53.486;10.196;2024-01-11T03:34:14;103410.09;;;-2.54;100.00
71666;BME280;59503;53.486;10.196;2024-01-11T03:36:39;103405.16;;;-2.50;100.00
71666;BME280;59503;53.486;10.196;2024-01-11T03:39:05;103405.75;;;-2.48;100.00
71666;BME280;59503;53.486;10.196;2024-01-11T03:41:31;103402.47;;;-2.44;100.00
71666;BME280;59503;53.486;10.196;2024-01-11T03:43:56;103390.16;;;-2.45;100.00
71666;BME280;59503;53.486;10.196;2024-01-11T03:46:22;103394.09;;;-2.47;100.00
71666;BME280;59503;53.486;10.196;2024-01-11T03:48:47;103417.22;;;-2.48;100.00
71666;BME280;59503;53.486;10.196;2024-01-11T03:51:13;103429.50;;;-2.40;100.00
71666;BME280;59503;53.486;10.196;2024-01-11T03:53:38;103429.72;;;-2.42;100.00
71666;BME280;59503;53.486;10.196;2024-01-11T03:56:04;103420.25;;;-2.38;100.00
71666;BME280;59503;53.486;10.196;2024-01-11T03:58:30;103422.91;;;-2.38;100.00
71666;BME280;59503;53.486;10.196;2024-01-11T04:00:55;103422.91;;;-2.38;100.00
71666;BME280;59503;53.486;10.196;2024-01-11T04:03:21;103410.66;;;-2.39;100.00
71666;BME280;59503;53.486;10.196;2024-01-11T04:05:46;103419.00;;;-2.29;100.00
71666;BME280;59503;53.486;10.196;2024-01-11T04:08:12;103396.44;;;-2.26;100.00
71666;BME280;59503;53.486;10.196;2024-01-11T04:10:37;103384.19;;;-2.34;100.00
71666;BME280;59503;53.486;10.196;2024-01-11T04:13:03;103374.38;;;-2.40;100.00
71666;BME280;59503;53.486;10.196;2024-01-11T04:15:28;103352.06;;;-2.39;100.00
71666;BME280;59503;53.486;10.196;2024-01-11T04:17:53;103341.22;;;-2.44;100.00
71666;BME280;59503;53.486;10.196;2024-01-11T04:20:19;103356.34;;;-2.38;100.00
71666;BME280;59503;53.486;10.196;2024-01-11T04:22:44;103345.06;;;-2.40;100.00
71666;BME280;59503;53.486;10.196;2024-01-11T04:25:10;103356.56;;;-2.39;100.00
71666;BME280;59503;53.486;10.196;2024-01-11T04:27:36;103350.19;;;-2.32;100.00
71666;BME280;59503;53.486;10.196;2024-01-11T04:30:02;103344.25;;;-2.34;100.00
71666;BME280;59503;53.486;10.196;2024-01-11T04:32:27;103343.22;;;-2.33;100.00
71666;BME280;59503;53.486;10.196;2024-01-11T04:34:53;103343.81;;;-2.31;100.00
71666;BME280;59503;53.486;10.196;2024-01-11T04:37:18;103345.88;;;-2.33;100.00
71666;BME280;59503;53.486;10.196;2024-01-11T04:39:44;103327.97;;;-2.19;100.00
71666;BME280;59503;53.486;10.196;2024-01-11T04:42:09;103309.97;;;-2.24;100.00
71666;BME280;59503;53.486;10.196;2024-01-11T04:44:35;103304.66;;;-2.24;100.00
71666;BME280;59503;53.486;10.196;2024-01-11T04:47:00;103316.72;;;-2.21;100.00
71666;BME280;59503;53.486;10.196;2024-01-11T04:49:26;103332.72;;;-2.28;100.00
71666;BME280;59503;53.486;10.196;2024-01-11T04:51:51;103331.91;;;-2.28;100.00
71666;BME280;59503;53.486;10.196;2024-01-11T04:54:16;103326.97;;;-2.25;100.00
71666;BME280;59503;53.486;10.196;2024-01-11T04:56:42;103307.75;;;-2.27;100.00
71666;BME280;59503;53.486;10.196;2024-01-11T04:59:07;103285.00;;;-2.29;100.00
71666;BME280;59503;53.486;10.196;2024-01-11T05:01:32;103296.28;;;-2.27;100.00
71666;BME280;59503;53.486;10.196;2024-01-11T05:03:58;103315.88;;;-2.15;100.00
71666;BME280;59503;53.486;10.196;2024-01-11T05:06:23;103317.53;;;-2.21;100.00
71666;BME280;59503;53.486;10.196;2024-01-11T05:08:51;103327.97;;;-2.19;100.00
71666;BME280;59503;53.486;10.196;2024-01-11T05:11:23;103347.84;;;-2.15;100.00
71666;BME280;59503;53.486;10.196;2024-01-11T05:13:50;103333.47;;;-2.14;100.00
71666;BME280;59503;53.486;10.196;2024-01-11T05:16:21;103332.69;;;-2.21;100.00
71666;BME280;59503;53.486;10.196;2024-01-11T05:18:46;103319.34;;;-2.15;100.00
71666;BME280;59503;53.486;10.196;2024-01-11T05:21:12;103310.72;;;-2.10;100.00
71666;BME280;59503;53.486;10.196;2024-01-11T05:23:37;103317.06;;;-2.11;100.00
71666;BME280;59503;53.486;10.196;2024-01-11T05:26:03;103306.00;;;-2.15;100.00
71666;BME280;59503;53.486;10.196;2024-01-11T05:28:28;103329.81;;;-2.13;100.00
71666;BME280;59503;53.486;10.196;2024-01-11T05:30:53;103330.94;;;-2.03;100.00
71666;BME280;59503;53.486;10.196;2024-01-11T05:33:20;103338.16;;;-2.10;100.00
71666;BME280;59503;53.486;10.196;2024-01-11T05:35:45;103351.66;;;-2.05;100.00
71666;BME280;59503;53.486;10.196;2024-01-11T05:38:11;103366.28;;;-2.14;100.00
71666;BME280;59503;53.486;10.196;2024-01-11T05:40:36;103363.34;;;-2.06;100.00
71666;BME280;59503;53.486;10.196;2024-01-11T05:43:02;103362.56;;;-2.13;100.00
71666;BME280;59503;53.486;10.196;2024-01-11T05:45:27;103362.38;;;-2.18;100.00
71666;BME280;59503;53.486;10.196;2024-01-11T05:47:52;103347.25;;;-2.17;100.00
71666;BME280;59503;53.486;10.196;2024-01-11T05:50:18;103349.06;;;-2.18;100.00
71666;BME280;59503;53.486;10.196;2024-01-11T05:52:43;103342.13;;;-2.19;100.00
71666;BME280;59503;53.486;10.196;2024-01-11T05:55:09;103341.34;;;-2.26;100.00
71666;BME280;59503;53.486;10.196;2024-01-11T05:57:34;103326.97;;;-2.25;100.00
71666;BME280;59503;53.486;10.196;2024-01-11T05:59:59;103333.09;;;-2.18;100.00
71666;BME280;59503;53.486;10.196;2024-01-11T06:02:25;103329.41;;;-2.17;100.00
71666;BME280;59503;53.486;10.196;2024-01-11T06:04:51;103324.03;;;-2.10;100.00
71666;BME280;59503;53.486;10.196;2024-01-11T06:07:16;103315.47;;;-2.19;100.00
71666;BME280;59503;53.486;10.196;2024-01-11T06:09:42;103296.66;;;-2.24;100.00
71666;BME280;59503;53.486;10.196;2024-01-11T06:12:08;103315.91;;;-2.22;100.00
71666;BME280;59503;53.486;10.196;2024-01-11T06:14:34;103302.44;;;-2.27;100.00
71666;BME280;59503;53.486;10.196;2024-01-11T06:16:59;103306.28;;;-2.23;100.00
71666;BME280;59503;53.486;10.196;2024-01-11T06:19:25;103305.66;;;-2.25;100.00
71666;BME280;59503;53.486;10.196;2024-01-11T06:21:50;103316.16;;;-2.30;100.00
71666;BME280;59503;53.486;10.196;2024-01-11T06:24:16;103318.22;;;-2.32;100.00
71666;BME280;59503;53.486;10.196;2024-01-11T06:26:41;103322.47;;;-2.24;100.00
71666;BME280;59503;53.486;10.196;2024-01-11T06:29:06;103313.66;;;-2.25;100.00
71666;BME280;59503;53.486;10.196;2024-01-11T06:31:32;103326.75;;;-2.23;100.00
71666;BME280;59503;53.486;10.196;2024-01-11T06:33:58;103320.41;;;-2.22;100.00
71666;BME280;59503;53.486;10.196;2024-01-11T06:36:23;103313.25;;;-2.28;100.00
71666;BME280;59503;53.486;10.196;2024-01-11T06:38:48;103323.72;;;-2.27;100.00
71666;BME280;59503;53.486;10.196;2024-01-11T06:41:14;103319.59;;;-2.23;100.00
71666;BME280;59503;53.486;10.196;2024-01-11T06:43:39;103321.41;;;-2.17;100.00
71666;BME280;59503;53.486;10.196;2024-01-11T06:46:05;103330.59;;;-2.13;100.00
71666;BME280;59503;53.486;10.196;2024-01-11T06:48:32;103342.47;;;-2.09;100.00
71666;BME280;59503;53.486;10.196;2024-01-11T06:50:57;103345.34;;;-2.10;100.00
71666;BME280;59503;53.486;10.196;2024-01-11T06:53:23;103332.25;;;-2.12;100.00
71666;BME280;59503;53.486;10.196;2024-01-11T06:55:48;103325.19;;;-2.00;100.00
71666;BME280;59503;53.486;10.196;2024-01-11T06:58:15;103320.50;;;-2.04;100.00
71666;BME280;59503;53.486;10.196;2024-01-11T07:00:41;103322.97;;;-2.03;100.00
71666;BME280;59503;53.486;10.196;2024-01-11T07:03:11;103325.28;;;-2.13;100.00
71666;BME280;59503;53.486;10.196;2024-01-11T07:05:37;103333.00;;;-2.05;100.00
71666;BME280;59503;53.486;10.196;2024-01-11T07:08:02;103325.84;;;-2.04;100.00
71666;BME280;59503;53.486;10.196;2024-01-11T07:10:28;103327.84;;;-2.00;100.00
71666;BME280;59503;53.486;10.196;2024-01-11T07:12:53;103330.56;;;-2.06;100.00
71666;BME280;59503;53.486;10.196;2024-01-11T07:15:18;103331.38;;;-2.06;100.00
71666;BME280;59503;53.486;10.196;2024-01-11T07:17:44;103332.84;;;-2.10;100.00
71666;BME280;59503;53.486;10.196;2024-01-11T07:20:10;103341.44;;;-2.08;100.00
71666;BME280;59503;53.486;10.196;2024-01-11T07:22:35;103342.66;;;-2.04;100.00
71666;BME280;59503;53.486;10.196;2024-01-11T07:25:01;103354.31;;;-1.98;100.00
71666;BME280;59503;53.486;10.196;2024-01-11T07:27:26;103359.25;;;-2.02;100.00
71666;BME280;59503;53.486;10.196;2024-01-11T07:29:52;103370.31;;;-1.98;100.00
71666;BME280;59503;53.486;10.196;2024-01-11T07:32:17;103356.81;;;-2.03;100.00
71666;BME280;59503;53.486;10.196;2024-01-11T07:34:43;103361.66;;;-1.94;100.00
71666;BME280;59503;53.486;10.196;2024-01-11T07:37:09;103360.16;;;-1.90;100.00
71666;BME280;59503;53.486;10.196;2024-01-11T07:39:34;103362.44;;;-1.87;100.00
71666;BME280;59503;53.486;10.196;2024-01-11T07:42:01;103348.06;;;-1.86;100.00
71666;BME280;59503;53.486;10.196;2024-01-11T07:44:28;103340.28;;;-1.87;100.00
71666;BME280;59503;53.486;10.196;2024-01-11T07:46:53;103343.16;;;-1.89;100.00
71666;BME280;59503;53.486;10.196;2024-01-11T07:49:18;103347.28;;;-1.93;100.00
71666;BME280;59503;53.486;10.196;2024-01-11T07:51:44;103353.81;;;-1.89;100.00
71666;BME280;59503;53.486;10.196;2024-01-11T07:54:09;103358.94;;;-1.87;100.00
71666;BME280;59503;53.486;10.196;2024-01-11T07:56:35;103367.94;;;-1.82;100.00
71666;BME280;59503;53.486;10.196;2024-01-11T07:59:00;103367.31;;;-1.84;100.00
71666;BME280;59503;53.486;10.196;2024-01-11T08:01:25;103381.44;;;-1.77;100.00
71666;BME280;59503;53.486;10.196;2024-01-11T08:03:51;103367.31;;;-1.84;100.00
71666;BME280;59503;53.486;10.196;2024-01-11T08:06:20;103371.78;;;-1.78;100.00
71666;BME280;59503;53.486;10.196;2024-01-11T08:08:45;103367.66;;;-1.74;100.00
71666;BME280;59503;53.486;10.196;2024-01-11T08:11:16;103362.50;;;-1.69;100.00
71666;BME280;59503;53.486;10.196;2024-01-11T08:13:42;103357.78;;;-1.67;100.00
71666;BME280;59503;53.486;10.196;2024-01-11T08:16:07;103364.28;;;-1.63;100.00
71666;BME280;59503;53.486;10.196;2024-01-11T08:18:35;103354.50;;;-1.69;100.00
71666;BME280;59503;53.486;10.196;2024-01-11T08:21:00;103352.44;;;-1.67;100.00
71666;BME280;59503;53.486;10.196;2024-01-11T08:23:25;103341.13;;;-1.62;100.00
71666;BME280;59503;53.486;10.196;2024-01-11T08:25:51;103345.78;;;-1.58;100.00
71666;BME280;59503;53.486;10.196;2024-01-11T08:28:20;103337.22;;;-1.60;100.00
71666;BME280;59503;53.486;10.196;2024-01-11T08:30:45;103337.56;;;-1.50;100.00
71666;BME280;59503;53.486;10.196;2024-01-11T08:33:11;103348.38;;;-1.45;100.00
71666;BME280;59503;53.486;10.196;2024-01-11T08:35:36;103343.63;;;-1.43;100.00
71666;BME280;59503;53.486;10.196;2024-01-11T08:38:01;103353.06;;;-1.40;100.00
71666;BME280;59503;53.486;10.196;2024-01-11T08:40:28;103349.34;;;-1.39;100.00
71666;BME280;59503;53.486;10.196;2024-01-11T08:42:53;103347.66;;;-1.34;100.00
71666;BME280;59503;53.486;10.196;2024-01-11T08:45:19;103346.78;;;-1.28;100.00
71666;BME280;59503;53.486;10.196;2024-01-11T08:47:45;103339.97;;;-1.23;100.00
71666;BME280;59503;53.486;10.196;2024-01-11T08:50:14;103327.47;;;-1.23;100.00
71666;BME280;59503;53.486;10.196;2024-01-11T08:52:40;103331.97;;;-1.23;100.00
71666;BME280;59503;53.486;10.196;2024-01-11T08:55:06;103324.94;;;-1.18;100.00
71666;BME280;59503;53.486;10.196;2024-01-11T08:57:32;103325.31;;;-1.14;100.00
71666;BME280;59503;53.486;10.196;2024-01-11T08:59:58;103334.50;;;-1.10;100.00
71666;BME280;59503;53.486;10.196;2024-01-11T09:02:23;103330.81;;;-1.09;100.00
71666;BME280;59503;53.486;10.196;2024-01-11T09:04:49;103328.53;;;-1.06;100.00
71666;BME280;59503;53.486;10.196;2024-01-11T09:07:14;103335.09;;;-1.08;100.00
71666;BME280;59503;53.486;10.196;2024-01-11T09:09:41;103324.88;;;-1.11;100.00
71666;BME280;59503;53.486;10.196;2024-01-11T09:12:06;103319.25;;;-1.03;100.00
71666;BME280;59503;53.486;10.196;2024-01-11T09:14:32;103326.56;;;-0.99;100.00
71666;BME280;59503;53.486;10.196;2024-01-11T09:16:58;103314.06;;;-0.98;100.00
71666;BME280;59503;53.486;10.196;2024-01-11T09:19:23;103313.53;;;-0.89;100.00
71666;BME280;59503;53.486;10.196;2024-01-11T09:21:49;103314.59;;;-0.90;100.00
71666;BME280;59503;53.486;10.196;2024-01-11T09:24:14;103306.19;;;-0.93;100.00
71666;BME280;59503;53.486;10.196;2024-01-11T09:26:40;103313.09;;;-0.86;100.00
71666;BME280;59503;53.486;10.196;2024-01-11T09:29:05;103313.03;;;-0.79;100.00
71666;BME280;59503;53.486;10.196;2024-01-11T09:31:31;103316.22;;;-0.71;100.00
71666;BME280;59503;53.486;10.196;2024-01-11T09:33:56;103304.25;;;-0.68;100.00
71666;BME280;59503;53.486;10.196;2024-01-11T09:36:22;103307.06;;;-0.63;100.00
71666;BME280;59503;53.486;10.196;2024-01-11T09:38:48;103304.16;;;-0.62;100.00
71666;BME280;59503;53.486;10.196;2024-01-11T09:41:14;103292.75;;;-0.69;100.00
71666;BME280;59503;53.486;10.196;2024-01-11T09:43:42;103311.31;;;-0.56;100.00
71666;BME280;59503;53.486;10.196;2024-01-11T09:46:09;103304.81;;;-0.48;100.00
71666;BME280;59503;53.486;10.196;2024-01-11T09:48:38;103307.34;;;-0.53;100.00
71666;BME280;59503;53.486;10.196;2024-01-11T09:51:08;103306.53;;;-0.54;100.00
71666;BME280;59503;53.486;10.196;2024-01-11T09:53:38;103310.53;;;-0.45;100.00
71666;BME280;59503;53.486;10.196;2024-01-11T09:56:10;103305.19;;;-0.45;100.00
71666;BME280;59503;53.486;10.196;2024-01-11T09:58:36;103301.28;;;-0.42;100.00
71666;BME280;59503;53.486;10.196;2024-01-11T10:01:02;103303.94;;;-0.42;100.00
71666;BME280;59503;53.486;10.196;2024-01-11T10:03:28;103305.25;;;-0.33;100.00
71666;BME280;59503;53.486;10.196;2024-01-11T10:05:57;103301.97;;;-0.35;100.00
71666;BME280;59503;53.486;10.196;2024-01-11T10:08:23;103296.84;;;-0.37;100.00
71666;BME280;59503;53.486;10.196;2024-01-11T10:10:49;103283.25;;;-0.35;100.00
71666;BME280;59503;53.486;10.196;2024-01-11T10:13:15;103296.50;;;-0.40;100.00
71666;BME280;59503;53.486;10.196;2024-01-11T10:15:44;103294.56;;;-0.33;100.00
71666;BME280;59503;53.486;10.196;2024-01-11T10:18:10;103301.69;;;-0.27;100.00
71666;BME280;59503;53.486;10.196;2024-01-11T10:20:36;103288.19;;;-0.32;100.00
71666;BME280;59503;53.486;10.196;2024-01-11T10:23:02;103292.25;;;-0.30;100.00
71666;BME280;59503;53.486;10.196;2024-01-11T10:25:28;103292.00;;;-0.28;100.00
71666;BME280;59503;53.486;10.196;2024-01-11T10:27:54;103283.06;;;-0.34;100.00
71666;BME280;59503;53.486;10.196;2024-01-11T10:30:20;103287.34;;;-0.33;100.00
71666;BME280;59503;53.486;10.196;2024-01-11T10:32:48;103288.41;;;-0.34;100.00
71666;BME280;59503;53.486;10.196;2024-01-11T10:35:14;103283.72;;;-0.38;100.00
71666;BME280;59503;53.486;10.196;2024-01-11T10:37:40;103282.09;;;-0.39;100.00
71666;BME280;59503;53.486;10.196;2024-01-11T10:40:07;103293.91;;;-0.29;100.00
71666;BME280;59503;53.486;10.196;2024-01-11T10:42:44;103305.50;;;-0.23;100.00
71666;BME280;59503;53.486;10.196;2024-01-11T10:45:14;103296.34;;;-0.27;100.00
71666;BME280;59503;53.486;10.196;2024-01-11T10:50:19;103312.03;;;-0.19;100.00
71666;BME280;59503;53.486;10.196;2024-01-11T10:52:59;103316.34;;;-0.18;100.00
71666;BME280;59503;53.486;10.196;2024-01-11T10:55:30;103331.47;;;-0.12;100.00
71666;BME280;59503;53.486;10.196;2024-01-11T10:57:57;103322.50;;;-0.18;100.00
71666;BME280;59503;53.486;10.196;2024-01-11T11:00:25;103328.31;;;-0.21;100.00
71666;BME280;59503;53.486;10.196;2024-01-11T11:02:54;103332.38;;;-0.18;100.00
71666;BME280;59503;53.486;10.196;2024-01-11T11:05:21;103327.03;;;-0.18;100.00
71666;BME280;59503;53.486;10.196;2024-01-11T11:07:49;103325.06;;;-0.11;100.00
71666;BME280;59503;53.486;10.196;2024-01-11T11:10:17;103315.69;;;-0.14;100.00
71666;BME280;59503;53.486;10.196;2024-01-11T11:12:44;103313.13;;;-0.09;100.00
71666;BME280;59503;53.486;10.196;2024-01-11T11:15:12;103313.56;;;-0.12;100.00
71666;BME280;59503;53.486;10.196;2024-01-11T11:17:39;103314.75;;;-0.08;100.00
71666;BME280;59503;53.486;10.196;2024-01-11T11:20:06;103321.94;;;-0.08;100.00
71666;BME280;59503;53.486;10.196;2024-01-11T11:22:37;103306.97;;;-0.09;100.00
71666;BME280;59503;53.486;10.196;2024-01-11T11:25:24;103311.63;;;-0.05;100.00
71666;BME280;59503;53.486;10.196;2024-01-11T11:27:49;103284.06;;;-0.05;100.00
71666;BME280;59503;53.486;10.196;2024-01-11T11:30:18;103284.78;;;0.02;100.00
71666;BME280;59503;53.486;10.196;2024-01-11T11:32:45;103267.47;;;0.05;100.00
71666;BME280;59503;53.486;10.196;2024-01-11T11:35:11;103263.50;;;0.07;100.00
71666;BME280;59503;53.486;10.196;2024-01-11T11:37:37;103262.97;;;0.05;100.00
71666;BME280;59503;53.486;10.196;2024-01-11T11:40:04;103276.09;;;0.07;100.00
71666;BME280;59503;53.486;10.196;2024-01-11T11:42:36;103280.63;;;0.06;100.00
71666;BME280;59503;53.486;10.196;2024-01-11T11:45:01;103281.78;;;0.10;100.00
71666;BME280;59503;53.486;10.196;2024-01-11T11:47:34;103280.63;;;0.06;100.00
71666;BME280;59503;53.486;10.196;2024-01-11T11:50:06;103274.09;;;0.02;100.00
71666;BME280;59503;53.486;10.196;2024-01-11T11:52:37;103292.25;;;0.00;100.00
71666;BME280;59503;53.486;10.196;2024-01-11T11:55:03;103277.47;;;-0.03;100.00
71666;BME280;59503;53.486;10.196;2024-01-11T11:57:30;103274.56;;;-0.01;100.00
71666;BME280;59503;53.486;10.196;2024-01-11T11:59:56;103265.28;;;0.02;100.00
71666;BME280;59503;53.486;10.196;2024-01-11T12:02:26;103254.69;;;0.07;100.00
71666;BME280;59503;53.486;10.196;2024-01-11T12:04:53;103260.59;;;0.09;100.00
71666;BME280;59503;53.486;10.196;2024-01-11T12:07:20;103248.88;;;0.10;100.00
71666;BME280;59503;53.486;10.196;2024-01-11T12:09:46;103247.16;;;0.15;100.00
71666;BME280;59503;53.486;10.196;2024-01-11T12:12:12;103233.78;;;0.15;100.00
71666;BME280;59503;53.486;10.196;2024-01-11T12:14:38;103233.56;;;0.17;100.00
71666;BME280;59503;53.486;10.196;2024-01-11T12:17:03;103222.50;;;0.13;100.00
71666;BME280;59503;53.486;10.196;2024-01-11T12:19:29;103227.38;;;0.16;100.00
71666;BME280;59503;53.486;10.196;2024-01-11T12:21:54;103234.47;;;0.11;100.00
71666;BME280;59503;53.486;10.196;2024-01-11T12:24:20;103226.44;;;0.22;100.00
71666;BME280;59503;53.486;10.196;2024-01-11T12:26:47;103218.06;;;0.07;100.00